• Join FlightAware (Why Join?)
  • Login
  • US Flag 
09:26PM EDT


 

Airport Tracker/Info


-or-


 

Live Flight TrackerFlight Track Log ✈ XSR387 ✈ 03-May-2013 ✈ KGMJ - KAAO

Flight Track Log - Related Links

Times and Time Zones

All times are in EDT time to prevent confusion due to time zone crossing. See the XSR387 flight status page for this flight to view local times or setup timezone preferences in your user account.

Time Position Orientation Groundspeed Altitude Reporting Facility
EDT Latitude Longitude Course Direction KTS MPH feet Rate Location/Type
02:14PM 36.6478 -94.7864 270° West 134 154 2,900  Level Kansas City Center
02:15PM 36.6653 -94.8303 296° West 141 162 4,200 1,320 Climbing Kansas City Center
02:16PM 36.6872 -94.8828 298° West 142 163 5,700 1,380 Climbing Kansas City Center
02:17PM 36.7042 -94.9275 295° West 142 163 7,100 1,380 Climbing Kansas City Center
02:18PM 36.7250 -94.9697 302° West 143 165 8,600 1,440 Climbing Kansas City Center
02:19PM 36.7464 -95.0067 306° West 138 159 10,100 1,200 Climbing Kansas City Center
02:20PM 36.7667 -95.0910 270° West  Level FlightAware Approximate
02:21PM 36.7658 -95.0483 300° West 137 158 11,100  Level Kansas City Center
02:22PM 36.7883 -95.0986 299° West 148 170 11,900 420 Climbing Kansas City Center
02:23PM 36.8206 -95.1728 299° West 188 216 12,000  Climbing Kansas City Center
02:24PM 36.8531 -95.2389 302° West 214 246 12,000  Level Kansas City Center
02:25PM 36.8842 -95.3050 300° West 220 253 12,000  Level Kansas City Center
02:26PM 36.9147 -95.3700 300° West 220 253 12,000  Level Kansas City Center
02:27PM 36.9453 -95.4339 301° West 217 250 12,000  Level Kansas City Center
02:28PM 36.9753 -95.4989 300° West 215 247 12,000  Level Kansas City Center
02:29PM 37.0039 -95.5617 300° West 209 241 12,000  Level Kansas City Center
02:30PM 37.0392 -95.6353 301° West 207 238 12,000  Level Kansas City Center
02:31PM 37.0675 -95.6978 300° West 205 236 12,000 -300 Level Kansas City Center
02:32PM 37.0958 -95.7633 298° West 211 243 11,500 -540 Descending Kansas City Center
02:33PM 37.1253 -95.8314 299° West 218 251 11,000 -540 Descending Kansas City Center
02:34PM 37.1558 -95.8967 300° West 218 251 10,500 -480 Descending Kansas City Center
02:35PM 37.1858 -95.9597 301° West 213 245 10,100 -300 Descending Kansas City Center
02:36PM 37.2194 -96.0325 300° West 202 232 10,000 -60 Descending Kansas City Center
02:37PM 37.2456 -96.0931 298° West 196 226 10,000  Level Kansas City Center
02:38PM 37.2711 -96.1564 297° West 201 231 10,000  Level Kansas City Center
02:39PM 37.2983 -96.2192 299° West 203 234 10,000  Level Kansas City Center
02:40PM 37.3250 -96.2806 299° West 201 231 10,000  Level Kansas City Center
02:41PM 37.3525 -96.3431 299° West 203 234 10,000  Level Kansas City Center
02:42PM 37.3828 -96.4028 303° West 201 231 10,000  Level Kansas City Center
02:43PM 37.4133 -96.4661 301° West 202 232 10,000 -480 Level Kansas City Center
02:44PM 37.4411 -96.5294 299° West 204 235 9,100 -1,020 Descending Kansas City Center
02:45PM 37.4661 -96.5942 296° West 206 237 7,900 -1,380 Descending Kansas City Center
02:46PM 37.4953 -96.6558 301° West 173 199 6,300 -1,260 Descending Kansas City Center
02:47PM 37.5186 -96.6994 304° West 142 163 5,400 -900 Descending Kansas City Center
02:48PM 37.5422 -96.7433 304° West 144 166 4,600 -720 Descending Kansas City Center
02:49PM 37.5633 -96.7892 300° West 147 169 3,900 -660 Descending Kansas City Center
02:50PM 37.5833 -96.8369 298° West 136 157 3,200 -420 Descending Kansas City Center
02:51PM 37.5981 -96.8769 295° West 142 163 3,100 -60 Descending Kansas City Center
02:52PM 37.6114 -96.9250 289° West 149 171 3,100  Level Kansas City Center
02:53PM 37.6186 -96.9767 280° West 149 171 3,200  Climbing Kansas City Center
02:54PM 37.6261 -97.0283 280° West 155 178 3,100 -60 Descending Kansas City Center
02:56PM 37.6369 -97.0953 282° West 157 181 3,100  Level Kansas City Center
02:56PM 37.6525 -97.1244 304° West 151 174 3,100  Level Kansas City Center
02:57PM 37.6575 -97.1381 295° West 153 176 3,100  Level Kansas City Center
02:58PM 37.6825 -97.1728 312° West 140 161 3,100 -240 Level Kansas City Center
02:59PM 37.7022 -97.2014 311° West 102 117 2,700 -480 Descending Kansas City Center
03:00PM 37.7214 -97.2247 316° Northwest 98 113 2,200 -480 Descending Kansas City Center
03:01PM 37.7486 -97.2231 North 88 101 1,800 -240 Descending Kansas City Center
03:02PM 37.7486 -97.2231 72° East 88 101 1,800  Level Kansas City Center